createdAt,value
2022-08-07T11:02:05.110Z,5.20
2022-08-07T11:04:34.717Z,4.40
2022-08-07T11:06:18.220Z,5.00
2022-08-07T11:08:23.560Z,4.20
2022-08-07T11:10:08.894Z,4.00
2022-08-07T11:12:06.743Z,3.40
2022-08-07T11:14:46.452Z,4.80
2022-08-07T11:15:43.290Z,3.60
2022-08-07T11:17:53.802Z,4.00
2022-08-07T11:19:32.028Z,5.00
2022-08-07T11:21:06.881Z,4.40
2022-08-07T11:23:26.228Z,5.00
2022-08-07T11:25:11.493Z,4.60
2022-08-07T11:27:03.785Z,5.00
2022-08-07T11:28:43.691Z,3.60
2022-08-07T11:30:39.113Z,3.00
2022-08-07T11:32:25.676Z,4.40
2022-08-07T11:34:06.862Z,5.00
2022-08-07T11:36:14.463Z,5.00
2022-08-07T11:38:18.010Z,4.20
2022-08-07T11:40:19.288Z,4.80
2022-08-07T11:42:02.638Z,3.40
2022-08-07T11:44:12.574Z,4.80
2022-08-07T11:46:12.237Z,2.00
2022-08-07T11:48:29.353Z,2.80
2022-08-07T11:50:31.587Z,4.60
2022-08-07T11:52:20.124Z,4.20
2022-08-07T11:54:41.368Z,5.00
2022-08-07T11:56:33.360Z,4.00
2022-08-07T11:58:33.635Z,5.60
2022-08-07T12:00:19.182Z,4.40
2022-08-07T12:02:02.819Z,5.00
2022-08-07T12:03:56.303Z,5.00
2022-08-07T12:05:49.472Z,4.60
2022-08-07T12:07:27.572Z,4.60
2022-08-07T12:09:23.513Z,5.00
2022-08-07T12:11:20.380Z,5.00
2022-08-07T12:12:59.597Z,5.20
2022-08-07T12:14:31.738Z,5.00
2022-08-07T12:16:09.139Z,4.00
2022-08-07T12:17:58.414Z,4.60
2022-08-07T12:20:02.848Z,4.40
2022-08-07T12:22:37.043Z,2.00
2022-08-07T12:24:06.728Z,4.00
2022-08-07T12:26:03.391Z,4.00
2022-08-07T12:28:09.769Z,5.00
2022-08-07T12:29:57.256Z,4.00
2022-08-07T12:31:52.931Z,4.00
2022-08-07T12:33:30.987Z,3.40
2022-08-07T12:35:21.960Z,3.80
2022-08-07T12:36:56.536Z,3.40
2022-08-07T12:38:42.822Z,5.20
2022-08-07T12:40:46.918Z,3.60
2022-08-07T12:42:13.341Z,4.20
2022-08-07T12:44:02.573Z,4.20
2022-08-07T12:45:42.184Z,4.00
2022-08-07T12:47:50.674Z,4.80
2022-08-07T12:49:51.240Z,2.80
2022-08-07T12:51:46.353Z,4.40
2022-08-07T12:54:24.120Z,3.00
2022-08-07T12:56:04.036Z,5.00
2022-08-07T12:57:38.962Z,5.00
2022-08-07T12:59:53.762Z,4.00
2022-08-07T13:01:58.832Z,4.00
2022-08-07T13:04:02.579Z,4.00
2022-08-07T13:06:21.414Z,3.00
2022-08-07T13:08:27.108Z,4.00
2022-08-07T13:10:39.802Z,4.00
2022-08-07T13:12:33.195Z,4.00
2022-08-07T13:14:29.213Z,2.00
2022-08-07T13:16:43.972Z,4.80
2022-08-07T13:18:28.250Z,3.80
2022-08-07T13:20:06.675Z,5.00
2022-08-07T13:21:58.920Z,4.00
2022-08-07T13:24:01.680Z,5.00
2022-08-07T13:25:45.838Z,3.00
2022-08-07T13:28:05.773Z,4.00
2022-08-07T13:29:57.303Z,3.00
2022-08-07T13:31:55.242Z,4.00
2022-08-07T13:34:31.527Z,4.80
2022-08-07T13:35:59.709Z,3.00
2022-08-07T13:37:55.318Z,4.00
2022-08-07T13:40:33.849Z,4.00
2022-08-07T13:41:47.380Z,3.60
2022-08-07T13:43:21.707Z,4.20
2022-08-07T13:45:11.773Z,4.00
2022-08-07T13:46:49.492Z,4.40
2022-08-07T13:48:33.838Z,3.40
2022-08-07T13:50:33.462Z,3.60
2022-08-07T13:52:22.186Z,4.20
2022-08-07T13:54:07.474Z,4.00
2022-08-07T13:55:41.466Z,2.80
2022-08-07T13:57:37.555Z,4.40
2022-08-07T13:59:19.966Z,3.80
2022-08-07T14:00:54.598Z,3.40
2022-08-07T14:02:29.716Z,3.20
2022-08-07T14:04:13.013Z,3.00
2022-08-07T14:05:58.316Z,1.20
2022-08-07T14:07:38.174Z,4.00
2022-08-07T14:10:17.822Z,4.00
2022-08-07T14:11:23.816Z,2.40
2022-08-07T14:13:00.552Z,3.00
2022-08-07T14:14:57.408Z,2.60
2022-08-07T14:16:38.105Z,4.00
2022-08-07T14:18:29.746Z,3.40
2022-08-07T14:20:42.806Z,4.00
2022-08-07T14:22:13.438Z,3.00
2022-08-07T14:24:05.154Z,6.00
2022-08-07T14:25:39.127Z,3.00
2022-08-07T14:30:06.340Z,4.40
2022-08-07T14:31:01.598Z,3.40
2022-08-07T14:33:01.795Z,3.00
2022-08-07T14:34:45.748Z,3.40
2022-08-07T14:36:18.607Z,0.80
2022-08-07T14:38:05.641Z,4.00
2022-08-07T14:40:18.046Z,2.00
2022-08-07T14:42:18.785Z,3.00
2022-08-07T14:43:57.698Z,3.00
2022-08-07T14:45:47.121Z,2.20
2022-08-07T14:47:19.558Z,2.80
2022-08-07T14:48:52.668Z,3.00
2022-08-07T14:50:26.308Z,1.00
2022-08-07T14:52:04.354Z,3.00
2022-08-07T14:55:34.627Z,2.80
2022-08-07T15:01:22.305Z,2.00
2022-08-07T15:02:56.874Z,4.00
2022-08-07T15:04:30.479Z,2.00
2022-08-07T15:06:05.450Z,1.80
2022-08-07T15:07:47.696Z,3.60
2022-08-07T15:09:59.570Z,3.00
2022-08-07T15:11:16.276Z,4.00
2022-08-07T15:13:17.505Z,1.00
2022-08-07T15:14:57.577Z,2.60
2022-08-07T15:16:54.940Z,3.60
2022-08-07T15:18:43.670Z,3.00
2022-08-07T15:20:33.320Z,3.00
2022-08-07T15:22:23.254Z,4.00
2022-08-07T15:25:15.377Z,4.00
2022-08-07T15:25:55.435Z,3.00
2022-08-07T15:30:06.466Z,3.00
2022-08-07T15:31:13.919Z,3.40
2022-08-07T15:33:19.641Z,4.00
2022-08-07T15:37:03.434Z,2.60
2022-08-07T15:38:58.830Z,2.00
2022-08-07T15:40:34.154Z,3.00
2022-08-07T15:42:43.460Z,3.20
2022-08-07T15:44:10.254Z,3.20
2022-08-07T15:45:57.577Z,4.00
2022-08-07T15:48:00.406Z,2.00
2022-08-07T15:50:05.863Z,4.00
2022-08-07T15:53:17.492Z,2.00
2022-08-07T15:54:56.829Z,4.00
2022-08-07T15:56:37.519Z,2.40
2022-08-07T15:58:20.788Z,2.60
2022-08-07T15:59:53.741Z,3.00
2022-08-07T16:01:38.521Z,4.00
2022-08-07T16:03:47.242Z,2.00
2022-08-07T16:05:23.264Z,3.00
2022-08-07T16:07:05.197Z,1.80
2022-08-07T16:09:01.330Z,4.00
2022-08-07T16:10:33.240Z,1.80
2022-08-07T16:12:13.817Z,2.20
2022-08-07T16:14:29.971Z,3.80
2022-08-07T16:16:06.595Z,4.00
2022-08-07T16:18:50.078Z,3.40
2022-08-07T16:20:33.755Z,2.00
2022-08-07T16:22:36.309Z,3.20
2022-08-07T16:24:35.612Z,1.80
2022-08-07T16:26:33.066Z,2.20
2022-08-07T16:28:11.481Z,3.40
2022-08-07T16:30:11.140Z,2.00
2022-08-07T16:32:02.719Z,2.00
2022-08-07T16:34:02.993Z,3.60
2022-08-07T16:35:51.538Z,3.80
2022-08-07T16:38:03.425Z,4.60
2022-08-07T16:40:01.800Z,3.00
2022-08-07T16:41:41.689Z,2.00
2022-08-07T16:44:06.251Z,3.60
2022-08-07T16:46:47.444Z,4.40
2022-08-07T16:48:05.295Z,3.60
2022-08-07T16:50:20.184Z,4.00
2022-08-07T16:52:50.818Z,5.40
2022-08-07T16:54:09.286Z,4.00
2022-08-07T16:55:50.506Z,4.20
2022-08-07T16:58:01.788Z,3.60
2022-08-07T16:59:51.284Z,3.00
2022-08-07T17:01:23.077Z,3.00
2022-08-07T17:03:17.108Z,0.00
2022-08-07T17:06:02.347Z,3.00
2022-08-07T17:07:28.419Z,3.20
2022-08-07T17:10:08.283Z,4.60
2022-08-07T17:12:04.873Z,4.00
2022-08-07T17:14:18.254Z,3.00
2022-08-07T17:15:51.821Z,3.00
2022-08-07T17:17:47.918Z,5.20
2022-08-07T17:20:01.854Z,3.80
2022-08-07T17:21:51.193Z,3.00
2022-08-07T17:23:31.943Z,3.00
2022-08-07T17:25:08.199Z,4.40
2022-08-07T17:26:51.301Z,3.00
2022-08-07T17:28:35.469Z,3.40
2022-08-07T17:30:15.315Z,2.00
2022-08-07T17:32:02.681Z,3.60
2022-08-07T17:34:09.613Z,2.60
2022-08-07T17:35:54.731Z,2.00
2022-08-07T17:38:05.601Z,2.40
2022-08-07T17:39:58.922Z,3.00
2022-08-07T17:42:01.663Z,2.40
2022-08-07T17:44:01.868Z,3.00
2022-08-07T17:45:43.816Z,3.20
2022-08-07T17:47:38.369Z,2.00
2022-08-07T17:49:23.150Z,2.80
2022-08-07T17:51:02.969Z,1.60
2022-08-07T17:52:40.017Z,1.80
2022-08-07T17:54:29.621Z,2.40
2022-08-07T17:56:33.135Z,3.20
2022-08-07T17:58:08.763Z,2.20
2022-08-07T17:59:41.458Z,2.80
2022-08-07T18:01:21.446Z,3.00
2022-08-07T18:03:17.932Z,3.00
2022-08-07T18:05:20.650Z,3.00
2022-08-07T18:07:20.353Z,3.00
2022-08-07T18:09:02.233Z,2.00
2022-08-07T18:12:06.990Z,3.00
2022-08-07T18:13:09.951Z,1.60
2022-08-07T18:14:55.380Z,1.60
2022-08-07T18:16:58.378Z,2.00
2022-08-07T18:21:07.960Z,2.60
2022-08-07T18:21:09.697Z,3.00
2022-08-07T18:22:45.740Z,3.00
2022-08-07T18:24:33.389Z,3.00
2022-08-07T18:26:15.164Z,3.00
2022-08-07T18:28:04.555Z,2.80
2022-08-07T18:30:07.566Z,3.20
2022-08-07T18:31:55.095Z,3.40
2022-08-07T18:33:55.999Z,5.00
2022-08-07T18:35:55.586Z,9.80
2022-08-07T18:38:57.158Z,15.60
2022-08-07T18:40:17.952Z,20.20
2022-08-07T18:42:29.470Z,16.00
2022-08-07T18:44:22.898Z,20.00
2022-08-07T18:46:26.691Z,21.80
2022-08-07T18:50:04.765Z,22.60
2022-08-07T18:50:39.559Z,24.40
2022-08-07T18:52:56.925Z,20.00
2022-08-07T18:55:40.264Z,19.60
2022-08-07T18:57:30.384Z,25.60
2022-08-07T18:59:47.309Z,22.20
2022-08-07T19:02:34.609Z,23.20
2022-08-07T19:03:55.644Z,20.40
2022-08-07T19:06:03.630Z,13.40
2022-08-07T19:08:05.683Z,16.00
2022-08-07T19:09:57.857Z,20.20
2022-08-07T19:11:38.628Z,19.80
2022-08-07T19:13:37.283Z,21.80
2022-08-07T19:16:03.772Z,23.20
2022-08-07T19:17:18.135Z,23.40
2022-08-07T19:19:05.362Z,23.20
2022-08-07T19:21:08.583Z,23.80
2022-08-07T19:23:18.488Z,24.60
2022-08-07T19:24:52.981Z,21.20
2022-08-07T19:26:28.838Z,27.20
2022-08-07T19:28:56.538Z,24.20
2022-08-07T19:30:56.948Z,22.40
2022-08-07T19:32:07.969Z,24.00
2022-08-07T19:33:46.107Z,24.80
2022-08-07T19:35:33.539Z,25.20
2022-08-07T19:37:17.111Z,24.80
2022-08-07T19:38:53.248Z,24.00
2022-08-07T19:40:30.469Z,23.00
2022-08-07T19:42:22.261Z,21.20
2022-08-07T19:43:59.969Z,21.40
2022-08-07T19:46:08.300Z,21.00
2022-08-07T19:47:29.303Z,31.00
2022-08-07T19:49:12.154Z,41.50
2022-08-07T19:50:48.706Z,30.40
2022-08-07T19:52:28.508Z,29.80
2022-08-07T19:54:33.608Z,27.80
2022-08-07T19:55:57.750Z,28.20
2022-08-07T19:58:02.673Z,27.40
2022-08-07T19:59:40.704Z,36.80
2022-08-07T20:01:18.747Z,34.00
2022-08-07T20:03:33.910Z,32.40
2022-08-07T20:05:09.078Z,30.00
2022-08-07T20:06:43.116Z,29.40
2022-08-07T20:08:21.116Z,28.20
2022-08-07T20:10:36.106Z,27.20
2022-08-07T20:12:22.311Z,25.80
2022-08-07T20:13:46.686Z,28.20
2022-08-07T20:15:22.453Z,28.20
2022-08-07T20:16:56.539Z,28.20
2022-08-07T20:18:33.402Z,26.80
2022-08-07T20:20:06.825Z,26.00
2022-08-07T20:21:47.228Z,27.00
2022-08-07T20:23:41.716Z,22.60
2022-08-07T20:25:12.630Z,23.20
2022-08-07T20:26:54.454Z,24.60
2022-08-07T20:28:29.732Z,28.40
2022-08-07T20:30:02.154Z,33.20
2022-08-07T20:31:42.945Z,48.50
2022-08-07T20:33:24.234Z,27.00
2022-08-07T20:35:16.038Z,33.40
2022-08-07T20:36:51.749Z,48.00
2022-08-07T20:38:24.515Z,33.40
2022-08-07T20:40:02.615Z,33.80
2022-08-07T20:41:38.113Z,33.20
2022-08-07T20:43:14.641Z,37.50
2022-08-07T20:44:51.179Z,41.75
2022-08-07T20:46:33.377Z,36.00
2022-08-07T20:48:05.784Z,44.50
2022-08-07T20:49:59.539Z,52.00
2022-08-07T20:51:35.731Z,41.25
2022-08-07T20:53:13.683Z,62.25
2022-08-07T20:54:53.676Z,62.25
2022-08-07T20:56:29.369Z,68.75
2022-08-07T20:58:04.073Z,75.80
2022-08-07T21:00:06.465Z,82.50
2022-08-07T21:01:45.908Z,74.75
2022-08-07T21:03:26.860Z,83.00
2022-08-07T21:04:59.450Z,82.50
2022-08-07T21:06:31.797Z,77.40
2022-08-07T21:08:05.591Z,76.80
2022-08-07T21:09:52.908Z,85.75
2022-08-07T21:11:46.036Z,80.80
2022-08-07T21:13:24.595Z,77.80
2022-08-07T21:15:18.694Z,62.00
2022-08-07T21:18:01.875Z,63.75
2022-08-07T21:18:50.412Z,68.50
2022-08-07T21:20:26.831Z,73.80
2022-08-07T21:22:05.695Z,72.80
2022-08-07T21:24:01.136Z,68.00
2022-08-07T21:26:03.360Z,65.75
2022-08-07T21:27:47.549Z,67.40
2022-08-07T21:29:30.372Z,70.20
2022-08-07T21:31:15.148Z,74.00
2022-08-07T21:32:52.874Z,73.00
2022-08-07T21:34:31.801Z,72.20
2022-08-07T21:36:32.319Z,70.80
2022-08-07T21:38:09.086Z,76.80
2022-08-07T21:39:57.963Z,74.00
2022-08-07T21:42:01.375Z,79.00
2022-08-07T21:43:56.582Z,109.75
2022-08-07T21:46:07.655Z,128.50
2022-08-07T21:47:50.646Z,134.00
2022-08-07T21:49:26.913Z,123.25
2022-08-07T21:51:25.120Z,100.75
2022-08-07T21:53:17.148Z,88.75
2022-08-07T21:55:11.030Z,89.50
2022-08-07T21:57:08.542Z,74.40
2022-08-07T21:59:06.713Z,86.50
2022-08-07T22:00:40.001Z,83.50
2022-08-07T22:02:16.181Z,95.25
2022-08-07T22:04:00.619Z,98.00
2022-08-07T22:05:50.165Z,80.00
2022-08-07T22:07:31.426Z,88.50
2022-08-07T22:09:16.435Z,92.75
2022-08-07T22:10:50.289Z,81.75
2022-08-07T22:12:31.751Z,83.75
2022-08-07T22:14:05.227Z,130.25
2022-08-07T22:16:44.837Z,191.25
2022-08-07T22:18:01.068Z,140.33
2022-08-07T22:20:00.654Z,104.75
2022-08-07T22:22:02.161Z,124.00
2022-08-07T22:23:51.015Z,120.00
2022-08-07T22:25:36.568Z,89.75
2022-08-07T22:28:01.229Z,102.00
2022-08-07T22:29:34.045Z,95.75
2022-08-07T22:31:55.932Z,98.00
2022-08-07T22:33:15.275Z,94.25
2022-08-07T22:34:53.344Z,101.25
